Latest Weather Observations for Cairns

IDQ60801

Issued at 10:52 am EST Monday 30 November 2020 (issued every 10 minutes, with the page automatically refreshed every 10 minutes)

About weather observations | Map of weather stations | Latest weather observations for QLD | Other Formats
Station Details ID: 031011 Name: CAIRNS AERO Lat: -16.87 Lon: 145.75 Height: 2.22 m
Data from the previous 72 hours. | See also: Recent months at Cairns
Date/Time
EST
Temp
°C
App
Temp
°C
Dew
Point
°C
Rel
Hum
%
Delta-T
°C
Wind Press
QNH
hPa
Press
MSL
hPa
Rain since
9am
mm
Dir  Spd
km/h
Gust
km/h
Spd
kts
Gust
kts
30/10:30am 29.5 31.0 21.2 61 5.5 ESE 15 20 8 11 1011.7 1011.7 0.0
30/10:00am 29.3 31.1 21.8 64 5.0 SSE 15 20 8 11 1011.9 1011.9 0.0
30/09:30am 27.9 30.2 22.8 74 3.5 SSE 15 20 8 11 1012.1 1012.1 0.0
30/09:00am 26.2 28.8 22.7 81 2.4 S 13 19 7 10 1012.0 1012.0 6.2
30/08:30am 27.6 29.5 22.8 75 3.3 SSE 17 22 9 12 1011.6 1011.6 6.2
30/08:00am 27.0 29.3 22.0 74 3.4 S 13 20 7 11 1011.4 1011.4 6.2
30/07:30am 26.1 28.5 22.2 79 2.6 S 13 20 7 11 1011.2 1011.2 6.2
30/07:00am 25.6 27.8 21.9 80 2.5 SSE 13 19 7 10 1010.9 1010.9 6.2
30/06:30am 24.6 26.7 22.5 88 1.4 SE 15 19 8 10 1010.7 1010.7 6.2
30/06:00am 24.3 27.6 22.6 90 1.1 SE 9 15 5 8 1010.2 1010.2 6.2
30/05:30am 24.0 27.5 22.1 89 1.3 SSE 7 13 4 7 1009.7 1009.7 6.2
30/05:00am 24.3 27.6 22.6 90 1.1 ESE 9 15 5 8 1009.4 1009.4 6.2
30/04:30am 24.5 27.6 22.2 87 1.5 SSE 9 17 5 9 1009.3 1009.3 6.2
30/04:00am 24.6 27.9 22.5 88 1.4 SE 9 15 5 8 1009.2 1009.2 6.2
30/03:30am 24.6 28.5 22.5 88 1.4 SSE 6 13 3 7 1009.0 1009.0 6.2
30/03:00am 24.6 28.1 21.9 85 1.8 SSE 6 7 3 4 1009.1 1009.1 6.2
30/02:30am 24.7 28.2 21.8 84 1.9 SE 6 13 3 7 1009.3 1009.3 6.2
30/02:00am 25.0 28.8 21.7 82 2.2 SSE 4 7 2 4 1009.6 1009.6 6.2
30/01:30am 25.1 28.4 21.8 82 2.2 SSE 7 13 4 7 1009.8 1009.8 6.2
30/01:00am 25.0 28.5 22.1 84 1.9 SE 7 15 4 8 1010.3 1010.3 6.2
30/12:30am 25.2 28.3 22.1 83 2.1 SSE 9 15 5 8 1010.7 1010.7 6.2
30/12:00am 25.2 27.4 21.9 82 2.2 SSE 13 19 7 10 1011.0 1011.0 6.2
 
Date/Time
EST
Temp
°C
App
Temp
°C
Dew
Point
°C
Rel
Hum
%
Delta-T
°C
Wind Press
QNH
hPa
Press
MSL
hPa
Rain since
9am
mm
Dir  Spd
km/h
Gust
km/h
Spd
kts
Gust
kts
29/11:30pm 25.1 28.5 22.0 83 2.1 SSE 7 13 4 7 1011.2 1011.2 6.2
29/11:00pm 25.5 28.0 21.8 80 2.5 S 11 17 6 9 1011.6 1011.6 6.2
29/10:30pm 25.2 28.2 21.9 82 2.2 S 9 15 5 8 1011.5 1011.5 6.2
29/10:00pm 25.8 29.2 21.7 78 2.7 S 6 11 3 6 1011.3 1011.3 6.2
29/09:30pm 26.0 29.2 21.7 77 2.9 S 7 15 4 8 1011.1 1011.1 6.2
29/09:00pm 26.1 29.3 21.7 77 2.9 S 7 11 4 6 1010.9 1010.9 6.2
29/08:30pm 26.3 29.7 21.7 76 3.1 S 6 11 3 6 1010.6 1010.6 6.2
29/08:00pm 26.4 29.7 21.8 76 3.1 SSE 7 13 4 7 1010.2 1010.2 6.2
29/07:30pm 26.3 28.3 21.5 75 3.2 SE 13 19 7 10 1010.0 1010.0 6.2
29/07:00pm 26.4 28.0 21.4 74 3.3 SE 15 19 8 10 1009.8 1009.8 6.2
29/06:30pm 26.7 28.4 22.3 77 3.0 SE 17 20 9 11 1009.5 1009.5 6.2
29/06:00pm 26.8 27.9 22.0 75 3.2 SE 19 26 10 14 1009.2 1009.2 6.2
29/05:30pm 27.5 28.6 22.0 72 3.7 ESE 19 26 10 14 1008.8 1008.8 6.2
29/05:00pm 28.2 29.1 21.5 67 4.5 ESE 19 28 10 15 1008.5 1008.5 6.2
29/04:30pm 28.5 29.5 21.8 67 4.5 ESE 19 26 10 14 1008.3 1008.3 6.2
29/04:00pm 29.3 29.8 22.0 64 4.9 ESE 22 33 12 18 1008.3 1008.3 6.2
29/03:30pm 28.6 29.1 21.9 67 4.5 ESE 22 32 12 17 1008.2 1008.2 6.2
29/03:00pm 29.4 29.9 21.1 61 5.5 ESE 20 26 11 14 1008.3 1008.3 6.2
29/02:30pm 30.1 31.2 22.0 62 5.5 ESE 19 28 10 15 1008.6 1008.6 6.2
29/02:00pm 29.8 31.8 23.0 67 4.7 E 17 22 9 12 1009.0 1009.0 6.2
29/01:30pm 28.6 30.5 22.8 71 3.9 E 17 24 9 13 1009.4 1009.4 6.2
29/01:00pm 28.8 30.8 22.3 68 4.4 E 15 19 8 10 1009.7 1009.7 6.2
29/12:30pm 28.6 31.5 23.1 72 3.8 E 13 19 7 10 1010.2 1010.2 6.0
29/12:00pm 27.8 33.0 24.8 84 2.1 ESE 6 7 3 4 1010.6 1010.6 6.0
29/11:55am 26.8 31.5 23.9 84 2.0 ESE 6 7 3 4 1010.7 1010.7 6.0
29/11:30am 26.4 31.0 24.1 87 1.6 S 7 15 4 8 1011.0 1011.0 1.6
29/11:23am 26.2 29.4 23.1 83 2.1 SSE 11 20 6 11 1011.1 1011.1 1.4
29/11:00am 27.6 30.9 22.5 74 3.5 SE 9 17 5 9 1011.2 1011.2 0.6
29/10:50am 26.9 30.0 22.9 79 2.7 SE 11 19 6 10 1011.4 1011.4 0.6
29/10:33am 26.7 29.7 24.0 85 1.9 SE 15 19 8 10 1011.6 1011.6 0.4
29/10:30am 26.8 28.9 23.1 80 2.5 SE 17 20 9 11 1011.6 1011.6 0.4
29/10:00am 28.2 31.4 23.1 74 3.5 S 11 15 6 8 1011.6 1011.6 0.0
29/09:30am 27.6 30.9 23.2 77 3.0 S 11 19 6 10 1011.8 1011.8 0.0
29/09:00am 26.1 29.6 22.8 82 2.2 SSE 9 15 5 8 1012.0 1012.0 17.2
29/08:30am 25.1 28.4 22.6 86 1.7 SSE 9 15 5 8 1011.9 1011.9 17.0
29/08:00am 24.5 28.0 22.9 91 1.1 SSE 9 13 5 7 1011.8 1011.8 17.0
29/07:30am 24.4 26.0 21.5 84 1.9 SSE 15 22 8 12 1011.4 1011.4 16.8
29/07:00am 23.9 25.9 21.6 87 1.5 SSE 13 20 7 11 1011.2 1011.2 16.8
29/06:30am 23.8 25.3 21.3 86 1.6 S 15 24 8 13 1010.8 1010.8 16.4
29/06:00am 24.2 25.7 21.3 84 1.9 S 15 26 8 14 1010.3 1010.3 16.4
29/05:30am 24.3 25.8 21.2 83 2.0 S 15 26 8 14 1010.0 1010.0 16.4
29/05:00am 24.0 26.3 21.3 85 1.8 S 11 20 6 11 1009.9 1009.9 16.4
29/04:30am 24.2 26.9 21.3 84 1.9 S 9 19 5 10 1009.7 1009.7 16.4
29/04:00am 23.7 26.6 21.8 89 1.3 S 9 20 5 11 1009.7 1009.7 16.4
29/03:30am 23.3 26.0 22.1 93 0.8 SSE 11 19 6 10 1009.7 1009.7 16.0
29/03:26am 23.3 25.6 22.1 93 0.8 SSE 13 20 7 11 1009.7 1009.7 16.0
29/03:13am 23.5 25.5 22.3 93 0.8 SSE 15 24 8 13 1009.5 1009.5 15.4
29/03:00am 23.8 27.3 22.1 90 1.1 S 7 17 4 9 1009.4 1009.4 14.6
29/02:58am 23.8 26.9 22.1 90 1.1 S 9 15 5 8 1009.4 1009.4 14.6
29/02:51am 23.7 26.7 22.0 90 1.1 S 9 17 5 9 1009.3 1009.3 14.6
29/02:37am 23.8 25.4 22.2 91 1.1 SSE 17 28 9 15 1009.6 1009.6 13.6
29/02:30am 24.0 25.1 21.9 88 1.4 S 19 28 10 15 1009.5 1009.5 12.2
29/02:00am 24.0 25.3 21.7 87 1.5 S 17 26 9 14 1009.7 1009.7 12.0
29/01:30am 23.7 25.1 21.8 89 1.3 S 17 26 9 14 1010.0 1010.0 12.0
29/01:00am 23.9 26.5 22.0 89 1.3 S 11 20 6 11 1010.5 1010.5 12.0
29/12:42am 23.7 25.4 22.3 92 0.9 S 17 22 9 12 1010.6 1010.6 11.8
29/12:30am 23.7 26.5 22.3 92 0.9 S 11 20 6 11 1010.7 1010.7 10.8
29/12:26am 23.6 27.1 22.2 92 0.9 SSE 7 19 4 10 1010.8 1010.8 10.8
29/12:00am 23.4 26.4 22.0 92 0.9 SE 9 17 5 9 1011.2 1011.2 9.6
 
Date/Time
EST
Temp
°C
App
Temp
°C
Dew
Point
°C
Rel
Hum
%
Delta-T
°C
Wind Press
QNH
hPa
Press
MSL
hPa
Rain since
9am
mm
Dir  Spd
km/h
Gust
km/h
Spd
kts
Gust
kts
28/11:44pm 23.4 26.3 22.4 94 0.7 SE 11 13 6 7 1011.2 1011.2 8.8
28/11:30pm 23.9 25.9 22.3 91 1.1 SE 15 22 8 12 1011.2 1011.2 8.8
28/11:00pm 24.7 27.5 21.6 83 2.1 S 9 19 5 10 1011.2 1011.2 7.6
28/10:56pm 24.4 26.8 21.5 84 1.9 S 11 22 6 12 1011.2 1011.2 7.6
28/10:37pm 24.1 26.6 21.8 87 1.5 SSE 11 17 6 9 1011.5 1011.5 7.6
28/10:30pm 24.1 26.9 21.6 86 1.7 S 9 19 5 10 1011.4 1011.4 7.6
28/10:00pm 23.8 25.4 21.5 87 1.5 S 15 28 8 15 1011.2 1011.2 7.6
28/09:30pm 23.8 25.5 21.7 88 1.4 S 15 26 8 14 1011.2 1011.2 7.4
28/09:00pm 24.1 25.9 21.8 87 1.5 S 15 20 8 11 1011.0 1011.0 7.4
28/08:30pm 24.3 26.3 21.6 85 1.8 S 13 22 7 12 1010.8 1010.8 7.4
28/08:00pm 24.0 25.5 21.3 85 1.8 S 15 22 8 12 1010.6 1010.6 7.4
28/07:30pm 24.2 25.1 20.9 82 2.2 S 17 30 9 16 1010.6 1010.6 7.4
28/07:00pm 24.5 26.2 21.6 84 1.9 S 15 26 8 14 1010.2 1010.2 7.4
28/06:30pm 24.4 28.2 22.7 90 1.1 SSE 7 13 4 7 1010.3 1010.3 7.2
28/06:12pm 24.3 27.9 22.4 89 1.3 SSE 7 13 4 7 1010.1 1010.1 7.2
28/06:00pm 23.9 26.4 22.5 92 0.9 S 13 20 7 11 1009.9 1009.9 7.2
28/05:50pm 24.0 26.7 22.8 93 0.8 SE 13 19 7 10 1010.2 1010.2 5.6
28/05:46pm 24.1 26.1 22.9 93 0.8 SE 17 26 9 14 1010.3 1010.3 4.6
28/05:30pm 24.3 23.7 22.6 90 1.1 E 30 48 16 26 1010.2 1010.2 3.8
28/05:25pm 24.6 22.7 22.1 86 1.7 E 35 48 19 26 1010.1 1010.1 2.6
28/05:22pm 25.6 24.3 22.1 81 2.3 E 32 48 17 26 1009.9 1009.9 1.0
28/05:00pm 29.6 30.0 21.0 60 5.7 ESE 20 26 11 14 1009.3 1009.3 0.8
28/04:30pm 29.4 29.7 20.8 60 5.7 SE 20 28 11 15 1009.3 1009.3 0.8
28/04:00pm 29.7 29.8 21.1 60 5.7 SE 22 33 12 18 1009.4 1009.4 0.8
28/03:30pm 29.4 29.7 20.8 60 5.7 SE 20 24 11 13 1009.4 1009.4 0.6
28/03:00pm 28.4 29.1 20.4 62 5.3 SE 17 24 9 13 1009.8 1009.8 0.6
28/02:30pm 27.8 28.3 20.9 66 4.6 SE 19 24 10 13 1010.0 1010.0 0.6
28/02:00pm 27.4 28.7 22.6 75 3.3 SE 20 26 11 14 1010.4 1010.4 0.6
28/01:30pm 27.0 28.7 23.0 79 2.7 ESE 19 24 10 13 1010.7 1010.7 0.6
28/01:00pm 27.0 29.0 24.6 87 1.7 ESE 22 32 12 17 1010.8 1010.8 0.6
28/12:30pm 24.9 26.2 22.6 87 1.5 SE 20 30 11 16 1011.1 1011.1 0.6
28/12:17pm 25.0 24.2 22.3 85 1.8 E 30 44 16 24 1011.4 1011.4 0.4
28/12:00pm 30.1 29.2 20.6 56 6.3 SE 26 35 14 19 1011.1 1011.1 0.0
28/11:30am 30.0 28.8 20.0 55 6.6 SE 26 37 14 20 1011.2 1011.2 0.0
28/11:00am 31.0 30.5 21.5 57 6.4 SE 26 35 14 19 1011.5 1011.5 0.0
28/10:30am 29.7 29.4 21.1 60 5.7 ESE 24 32 13 17 1011.6 1011.6 0.0
28/10:00am 29.2 28.6 20.6 59 5.7 SE 24 32 13 17 1012.0 1012.0 0.0
28/09:30am 29.2 30.3 22.4 66 4.6 SSE 20 28 11 15 1012.0 1012.0 0.0
28/09:19am 28.7 27.9 21.7 66 4.7 SE 28 41 15 22 1012.1 1012.1 0.0
28/09:00am 28.2 29.8 21.5 67 4.5 SE 15 22 8 12 1012.0 1012.0 2.4
28/08:30am 28.4 29.7 20.9 64 5.0 SSE 15 24 8 13 1011.8 1011.8 2.4
28/08:00am 26.7 28.7 21.5 73 3.5 SSE 13 17 7 9 1011.7 1011.7 2.4
28/07:30am 26.2 27.5 20.8 72 3.6 S 15 20 8 11 1011.3 1011.3 2.4
28/07:00am 26.1 27.2 20.4 71 3.7 S 15 22 8 12 1010.9 1010.9 2.4
28/06:30am 25.3 26.7 20.3 74 3.3 SSE 13 19 7 10 1010.8 1010.8 2.4
28/06:00am 24.9 26.6 20.2 75 3.1 SSE 11 19 6 10 1010.3 1010.3 2.4
28/05:30am 24.8 26.5 20.1 75 3.0 SSE 11 19 6 10 1009.9 1009.9 2.4
28/05:00am 24.5 26.0 19.8 75 3.0 SSE 11 17 6 9 1009.6 1009.6 2.4
28/04:30am 24.6 26.3 20.1 76 2.9 SSE 11 17 6 9 1009.5 1009.5 2.4
28/04:00am 24.6 25.4 19.9 75 3.0 SSE 15 19 8 10 1009.5 1009.5 2.4
28/03:30am 24.6 25.9 20.1 76 2.9 SSE 13 20 7 11 1009.3 1009.3 2.4
28/03:00am 24.6 25.6 20.3 77 2.8 SSE 15 24 8 13 1009.1 1009.1 2.4
28/02:30am 24.6 24.9 20.5 78 2.7 SSE 19 24 10 13 1009.3 1009.3 2.4
28/02:00am 24.9 26.2 20.8 78 2.7 S 15 24 8 13 1009.6 1009.6 2.4
28/01:30am 25.0 26.0 21.1 79 2.6 S 17 24 9 13 1010.0 1010.0 2.4
28/01:00am 25.2 27.1 21.3 79 2.6 S 13 24 7 13 1010.4 1010.4 2.4
28/12:30am 25.2 28.3 21.5 80 2.5 S 7 15 4 8 1010.9 1010.9 2.4
28/12:00am 25.0 27.3 21.3 80 2.4 SSE 11 19 6 10 1011.1 1011.1 2.4
 
Date/Time
EST
Temp
°C
App
Temp
°C
Dew
Point
°C
Rel
Hum
%
Delta-T
°C
Wind Press
QNH
hPa
Press
MSL
hPa
Rain since
9am
mm
Dir  Spd
km/h
Gust
km/h
Spd
kts
Gust
kts
27/11:30pm 25.2 27.3 21.7 81 2.3 SSE 13 17 7 9 1011.6 1011.6 2.4
27/11:00pm 25.0 27.6 21.9 83 2.1 SSE 11 17 6 9 1012.0 1012.0 2.4
27/10:30pm 25.2 28.0 22.3 84 1.9 SSE 11 20 6 11 1011.9 1011.9 2.4
27/10:00pm 25.5 27.8 22.0 81 2.3 S 13 19 7 10 1011.4 1011.4 2.4
27/09:30pm 25.4 27.4 22.3 83 2.1 SSE 15 22 8 12 1011.2 1011.2 2.4
27/09:00pm 26.1 28.4 22.0 78 2.7 SSE 13 19 7 10 1011.2 1011.2 2.4
27/08:30pm 26.0 28.7 22.1 79 2.6 S 11 20 6 11 1011.1 1011.1 2.4
27/08:00pm 25.9 28.2 22.0 79 2.6 SSE 13 20 7 11 1010.7 1010.7 2.4
27/07:30pm 26.7 27.0 22.3 77 3.0 SE 24 32 13 17 1010.5 1010.5 2.4
27/07:00pm 26.7 27.7 22.1 76 3.1 SE 20 26 11 14 1010.2 1010.2 2.4
27/06:30pm 27.2 27.5 22.2 74 3.4 SE 24 30 13 16 1009.9 1009.9 2.4
27/06:00pm 27.8 28.0 22.1 71 3.8 SE 24 32 13 17 1009.7 1009.7 2.4
27/05:30pm 28.3 27.7 21.3 65 4.7 SE 26 33 14 18 1009.3 1009.3 2.4
27/05:00pm 28.8 28.1 22.5 68 4.3 SE 30 39 16 21 1008.8 1008.8 2.4
27/04:30pm 28.8 29.8 22.8 70 4.1 SE 22 30 12 16 1008.9 1008.9 2.4
27/04:00pm 28.3 29.5 23.2 74 3.5 SE 22 28 12 15 1009.0 1009.0 2.4
27/03:30pm 27.2 29.4 24.3 84 2.0 SE 20 26 11 14 1009.2 1009.2 2.4
27/03:00pm 27.7 29.1 23.5 78 2.9 SE 22 30 12 16 1009.4 1009.4 2.0
27/02:30pm 26.8 29.5 23.5 82 2.3 SSE 15 22 8 12 1009.5 1009.5 2.0
27/02:00pm 26.7 29.6 23.8 84 2.0 SSE 15 19 8 10 1009.9 1009.9 2.0
27/01:30pm 26.8 30.0 23.7 83 2.1 SE 13 19 7 10 1010.3 1010.3 2.0
27/01:17pm 26.7 30.1 24.0 85 1.9 SE 13 19 7 10 1010.6 1010.6 2.0
27/01:02pm 26.2 30.2 23.7 86 1.7 SE 9 15 5 8 1010.7 1010.7 2.0
27/01:00pm 26.0 29.8 23.5 86 1.7 SE 9 15 5 8 1010.7 1010.7 2.0
27/12:30pm 25.8 29.4 23.8 89 1.4 SSE 11 15 6 8 1011.0 1011.0 1.8
27/12:00pm 26.0 29.8 23.5 86 1.7 SE 9 17 5 9 1011.1 1011.1 1.6
27/11:36am 26.3 28.4 23.8 86 1.7 SE 19 26 10 14 1011.2 1011.2 1.0
27/11:30am 26.3 28.9 24.0 87 1.6 SSE 17 24 9 13 1011.3 1011.3 1.0
27/11:18am 25.9 27.7 23.2 85 1.8 SSE 19 33 10 18 1011.4 1011.4 1.0
27/11:00am 26.5 29.1 24.0 86 1.7 E 17 28 9 15 1011.3 1011.3 1.0

Other formats

Comma delimited format used in spreadsheet applications
http://www.bom.gov.au/fwo/IDQ60801/IDQ60801.94287.axf

JavaScript Object Notation format (JSON) in row-major order
http://www.bom.gov.au/fwo/IDQ60801/IDQ60801.94287.json

Data quality

Most of these data are generated automatically and are frequently updated. Quality checks on data are not normally performed. It is possible for incorrect values to appear. Refer to information at About Latest Weather Observations and please check the disclaimer before using these data.